logo
Search for airport 
image banner adimage banner adimage banner ad
image banner ad

MRRF - Rio Frio

Located in Pococi, Costa Rica

ICAO - MRRF, IATA - RFR

Data provided by Airmate  

General information

Coordinates: N10°19'30" W83°53'14"
Elevation is 361 feet MSL.
 
View others Airports in Heredia

Operational data

Special qualification required
Current time UTC:
Current local time:
Weather at : MRPV - Tobias Bolanos Intl ( 49 km )
TAF: MRPV 180037Z 1800/1824 28005KT 1000 BR BKN005 TX26/1817Z TN18/1811Z FM180500 00000KT 5000 BR SCT005 FM180800 11006KT 9999 NSW FM181600 28005KT 9999 SCT035 TEMPO 1818/1822 5000 TSRA SCT015CB FM182300 30005KT 5000 RA BR BKN010
View NOTAMs / SUP AIP / TFR affecting this airport [VIEW]
Communications frequencies: [VIEW]

Runways:

RWY identifierQFULength (ft)Width (ft)SurfaceLDA (ft)
02262539UNK
20262539UNK

Airport contact information

Address: Pococi Costa Rica

Satellite view of MRRF